Red Oak, Georgia
Current Conditions -  °F | °C
As of 10:52 PM on Saturday 24 Jan 2015 (Local Time) from KATL Reporting Station
Clear Clear  
Wind Chill: 33°   Ceiling: Unl
Heat Index: 37°   Visibility: 10mi
Dew Point: 26°   Wind: 5mph
Humidity: 65%   Direction: 240°WSW
Pressure: 29.97"   Gusts: NA
Location:  33.63°N, 84.5°W
Report Text: KATL 250352Z 24004KT 10SM CLR 03/M03 A2997 RMK AO2 SLP156 T00281033
Loading
Personal Weather Stations






























Interactive Weather Map New forecast layout! Learn more

10-Day Weather Forecast

Advertisements
Track Severe Weather on mobile